sensor_id;sensor_type;location;lat;lon;timestamp;temperature;humidity
15609;DHT22;64278;45.642;13.756;2023-04-19T00:01:37;21.80;55.10
15609;DHT22;64278;45.642;13.756;2023-04-19T00:04:04;21.80;55.00
15609;DHT22;64278;45.642;13.756;2023-04-19T00:06:29;21.80;55.00
15609;DHT22;64278;45.642;13.756;2023-04-19T00:08:56;21.80;55.00
15609;DHT22;64278;45.642;13.756;2023-04-19T00:11:22;21.80;55.00
15609;DHT22;64278;45.642;13.756;2023-04-19T00:13:48;21.80;55.00
15609;DHT22;64278;45.642;13.756;2023-04-19T00:16:14;21.80;55.00
15609;DHT22;64278;45.642;13.756;2023-04-19T00:18:40;21.80;55.00
15609;DHT22;64278;45.642;13.756;2023-04-19T00:21:07;21.80;55.00
15609;DHT22;64278;45.642;13.756;2023-04-19T00:23:33;21.80;55.00
15609;DHT22;64278;45.642;13.756;2023-04-19T00:26:01;21.80;55.00
15609;DHT22;64278;45.642;13.756;2023-04-19T00:28:28;21.80;55.00
15609;DHT22;64278;45.642;13.756;2023-04-19T00:30:54;21.80;54.90
15609;DHT22;64278;45.642;13.756;2023-04-19T00:33:19;21.80;54.90
15609;DHT22;64278;45.642;13.756;2023-04-19T00:35:45;21.80;54.90
15609;DHT22;64278;45.642;13.756;2023-04-19T00:38:10;21.80;54.90
15609;DHT22;64278;45.642;13.756;2023-04-19T00:40:37;21.80;54.90
15609;DHT22;64278;45.642;13.756;2023-04-19T00:43:03;21.80;54.90
15609;DHT22;64278;45.642;13.756;2023-04-19T00:45:28;21.80;54.90
15609;DHT22;64278;45.642;13.756;2023-04-19T00:47:55;21.80;54.90
15609;DHT22;64278;45.642;13.756;2023-04-19T00:50:20;21.80;54.80
15609;DHT22;64278;45.642;13.756;2023-04-19T00:52:47;21.80;54.80
15609;DHT22;64278;45.642;13.756;2023-04-19T00:55:13;21.80;54.80
15609;DHT22;64278;45.642;13.756;2023-04-19T00:57:39;21.80;54.80
15609;DHT22;64278;45.642;13.756;2023-04-19T01:00:06;21.70;54.70
15609;DHT22;64278;45.642;13.756;2023-04-19T01:02:34;21.80;54.80
15609;DHT22;64278;45.642;13.756;2023-04-19T01:04:59;21.80;54.80
15609;DHT22;64278;45.642;13.756;2023-04-19T01:07:25;21.80;54.70
15609;DHT22;64278;45.642;13.756;2023-04-19T01:09:51;21.80;54.70
15609;DHT22;64278;45.642;13.756;2023-04-19T01:12:17;21.80;54.70
15609;DHT22;64278;45.642;13.756;2023-04-19T01:14:42;21.70;54.70
15609;DHT22;64278;45.642;13.756;2023-04-19T01:17:08;21.80;54.70
15609;DHT22;64278;45.642;13.756;2023-04-19T01:19:35;21.80;54.70
15609;DHT22;64278;45.642;13.756;2023-04-19T01:22:01;21.70;54.60
15609;DHT22;64278;45.642;13.756;2023-04-19T01:24:32;21.80;54.70
15609;DHT22;64278;45.642;13.756;2023-04-19T01:26:57;21.80;54.60
15609;DHT22;64278;45.642;13.756;2023-04-19T01:29:23;21.70;54.60
15609;DHT22;64278;45.642;13.756;2023-04-19T01:31:49;21.70;54.60
15609;DHT22;64278;45.642;13.756;2023-04-19T01:34:20;21.70;54.60
15609;DHT22;64278;45.642;13.756;2023-04-19T01:36:49;21.80;54.60
15609;DHT22;64278;45.642;13.756;2023-04-19T01:39:15;21.80;54.60
15609;DHT22;64278;45.642;13.756;2023-04-19T01:41:41;21.70;54.60
15609;DHT22;64278;45.642;13.756;2023-04-19T01:44:06;21.80;54.60
15609;DHT22;64278;45.642;13.756;2023-04-19T01:46:32;21.70;54.60
15609;DHT22;64278;45.642;13.756;2023-04-19T01:48:58;21.80;54.60
15609;DHT22;64278;45.642;13.756;2023-04-19T01:51:23;21.80;54.60
15609;DHT22;64278;45.642;13.756;2023-04-19T01:53:49;21.70;54.60
15609;DHT22;64278;45.642;13.756;2023-04-19T01:56:18;21.70;54.60
15609;DHT22;64278;45.642;13.756;2023-04-19T01:58:44;21.70;54.50
15609;DHT22;64278;45.642;13.756;2023-04-19T02:01:09;21.80;54.60
15609;DHT22;64278;45.642;13.756;2023-04-19T02:03:38;21.70;54.60
15609;DHT22;64278;45.642;13.756;2023-04-19T02:06:04;21.70;54.60
15609;DHT22;64278;45.642;13.756;2023-04-19T02:08:29;21.70;54.50
15609;DHT22;64278;45.642;13.756;2023-04-19T02:10:55;21.80;54.60
15609;DHT22;64278;45.642;13.756;2023-04-19T02:13:21;21.70;54.50
15609;DHT22;64278;45.642;13.756;2023-04-19T02:15:46;21.80;54.50
15609;DHT22;64278;45.642;13.756;2023-04-19T02:18:12;21.70;54.40
15609;DHT22;64278;45.642;13.756;2023-04-19T02:20:38;21.80;54.40
15609;DHT22;64278;45.642;13.756;2023-04-19T02:23:04;21.70;54.40
15609;DHT22;64278;45.642;13.756;2023-04-19T02:25:29;21.70;54.40
15609;DHT22;64278;45.642;13.756;2023-04-19T02:27:55;21.80;54.40
15609;DHT22;64278;45.642;13.756;2023-04-19T02:30:21;21.80;54.40
15609;DHT22;64278;45.642;13.756;2023-04-19T02:32:50;21.70;54.40
15609;DHT22;64278;45.642;13.756;2023-04-19T02:35:15;21.70;54.30
15609;DHT22;64278;45.642;13.756;2023-04-19T02:37:41;21.70;54.40
15609;DHT22;64278;45.642;13.756;2023-04-19T02:40:07;21.70;54.30
15609;DHT22;64278;45.642;13.756;2023-04-19T02:42:33;21.70;54.30
15609;DHT22;64278;45.642;13.756;2023-04-19T02:44:59;21.70;54.30
15609;DHT22;64278;45.642;13.756;2023-04-19T02:47:24;21.70;54.30
15609;DHT22;64278;45.642;13.756;2023-04-19T02:49:50;21.70;54.30
15609;DHT22;64278;45.642;13.756;2023-04-19T02:52:16;21.80;54.40
15609;DHT22;64278;45.642;13.756;2023-04-19T02:54:41;21.70;54.30
15609;DHT22;64278;45.642;13.756;2023-04-19T02:57:07;21.70;54.30
15609;DHT22;64278;45.642;13.756;2023-04-19T02:59:32;21.70;54.20
15609;DHT22;64278;45.642;13.756;2023-04-19T03:01:58;21.70;54.30
15609;DHT22;64278;45.642;13.756;2023-04-19T03:04:24;21.70;54.20
15609;DHT22;64278;45.642;13.756;2023-04-19T03:06:50;21.70;54.20
15609;DHT22;64278;45.642;13.756;2023-04-19T03:09:16;21.70;54.20
15609;DHT22;64278;45.642;13.756;2023-04-19T03:11:41;21.70;54.20
15609;DHT22;64278;45.642;13.756;2023-04-19T03:14:07;21.70;54.20
15609;DHT22;64278;45.642;13.756;2023-04-19T03:16:33;21.70;54.20
15609;DHT22;64278;45.642;13.756;2023-04-19T03:18:58;21.70;54.20
15609;DHT22;64278;45.642;13.756;2023-04-19T03:21:24;21.70;54.20
15609;DHT22;64278;45.642;13.756;2023-04-19T03:23:52;21.70;54.20
15609;DHT22;64278;45.642;13.756;2023-04-19T03:26:18;21.70;54.20
15609;DHT22;64278;45.642;13.756;2023-04-19T03:28:43;21.70;54.20
15609;DHT22;64278;45.642;13.756;2023-04-19T03:31:09;21.70;54.20
15609;DHT22;64278;45.642;13.756;2023-04-19T03:33:35;21.70;54.20
15609;DHT22;64278;45.642;13.756;2023-04-19T03:36:01;21.70;54.20
15609;DHT22;64278;45.642;13.756;2023-04-19T03:38:26;21.70;54.20
15609;DHT22;64278;45.642;13.756;2023-04-19T03:40:52;21.70;54.20
15609;DHT22;64278;45.642;13.756;2023-04-19T03:43:17;21.70;54.20
15609;DHT22;64278;45.642;13.756;2023-04-19T03:45:43;21.70;54.20
15609;DHT22;64278;45.642;13.756;2023-04-19T03:48:09;21.70;54.20
15609;DHT22;64278;45.642;13.756;2023-04-19T03:50:34;21.70;54.20
15609;DHT22;64278;45.642;13.756;2023-04-19T03:53:01;21.70;54.20
15609;DHT22;64278;45.642;13.756;2023-04-19T03:55:27;21.70;54.20
15609;DHT22;64278;45.642;13.756;2023-04-19T03:57:53;21.70;54.20
15609;DHT22;64278;45.642;13.756;2023-04-19T04:00:19;21.60;54.10
15609;DHT22;64278;45.642;13.756;2023-04-19T04:02:44;21.70;54.20
15609;DHT22;64278;45.642;13.756;2023-04-19T04:05:10;21.70;54.20
15609;DHT22;64278;45.642;13.756;2023-04-19T04:07:36;21.70;54.20
15609;DHT22;64278;45.642;13.756;2023-04-19T04:10:01;21.70;54.20
15609;DHT22;64278;45.642;13.756;2023-04-19T04:12:27;21.70;54.20
15609;DHT22;64278;45.642;13.756;2023-04-19T04:14:53;21.70;54.20
15609;DHT22;64278;45.642;13.756;2023-04-19T04:17:18;21.70;54.20
15609;DHT22;64278;45.642;13.756;2023-04-19T04:19:44;21.70;54.20
15609;DHT22;64278;45.642;13.756;2023-04-19T04:22:09;21.70;54.20
15609;DHT22;64278;45.642;13.756;2023-04-19T04:24:39;21.70;54.20
15609;DHT22;64278;45.642;13.756;2023-04-19T04:27:06;21.70;54.10
15609;DHT22;64278;45.642;13.756;2023-04-19T04:29:38;21.70;54.10
15609;DHT22;64278;45.642;13.756;2023-04-19T04:32:07;21.70;54.10
15609;DHT22;64278;45.642;13.756;2023-04-19T04:34:35;21.70;54.10
15609;DHT22;64278;45.642;13.756;2023-04-19T04:37:02;21.70;54.10
15609;DHT22;64278;45.642;13.756;2023-04-19T04:39:28;21.60;54.10
15609;DHT22;64278;45.642;13.756;2023-04-19T04:41:54;21.60;54.10
15609;DHT22;64278;45.642;13.756;2023-04-19T04:44:22;21.70;54.80
15609;DHT22;64278;45.642;13.756;2023-04-19T04:46:48;21.60;54.10
15609;DHT22;64278;45.642;13.756;2023-04-19T04:49:13;21.70;54.20
15609;DHT22;64278;45.642;13.756;2023-04-19T04:51:39;21.70;54.80
15609;DHT22;64278;45.642;13.756;2023-04-19T04:54:05;21.70;54.10
15609;DHT22;64278;45.642;13.756;2023-04-19T04:56:30;21.70;54.20
15609;DHT22;64278;45.642;13.756;2023-04-19T04:58:56;21.70;54.20
15609;DHT22;64278;45.642;13.756;2023-04-19T05:01:22;21.70;54.20
15609;DHT22;64278;45.642;13.756;2023-04-19T05:03:48;21.70;54.20
15609;DHT22;64278;45.642;13.756;2023-04-19T05:06:14;21.60;54.20
15609;DHT22;64278;45.642;13.756;2023-04-19T05:08:40;21.60;54.10
15609;DHT22;64278;45.642;13.756;2023-04-19T05:11:06;21.70;54.20
15609;DHT22;64278;45.642;13.756;2023-04-19T05:13:31;21.60;54.20
15609;DHT22;64278;45.642;13.756;2023-04-19T05:15:57;21.60;54.20
15609;DHT22;64278;45.642;13.756;2023-04-19T05:18:23;21.70;54.20
15609;DHT22;64278;45.642;13.756;2023-04-19T05:20:49;21.60;54.20
15609;DHT22;64278;45.642;13.756;2023-04-19T05:23:14;21.60;54.20
15609;DHT22;64278;45.642;13.756;2023-04-19T05:25:40;21.70;54.20
15609;DHT22;64278;45.642;13.756;2023-04-19T05:28:06;21.60;54.20
15609;DHT22;64278;45.642;13.756;2023-04-19T05:30:31;21.70;54.20
15609;DHT22;64278;45.642;13.756;2023-04-19T05:32:57;21.60;54.10
15609;DHT22;64278;45.642;13.756;2023-04-19T05:35:23;21.60;54.20
15609;DHT22;64278;45.642;13.756;2023-04-19T05:37:49;21.60;54.10
15609;DHT22;64278;45.642;13.756;2023-04-19T05:40:14;21.60;54.10
15609;DHT22;64278;45.642;13.756;2023-04-19T05:42:40;21.60;54.10
15609;DHT22;64278;45.642;13.756;2023-04-19T05:45:06;21.60;54.20
15609;DHT22;64278;45.642;13.756;2023-04-19T05:47:32;21.60;54.20
15609;DHT22;64278;45.642;13.756;2023-04-19T05:49:58;21.60;54.20
15609;DHT22;64278;45.642;13.756;2023-04-19T05:52:23;21.60;54.20
15609;DHT22;64278;45.642;13.756;2023-04-19T05:54:49;21.70;54.20
15609;DHT22;64278;45.642;13.756;2023-04-19T05:57:15;21.70;54.30
15609;DHT22;64278;45.642;13.756;2023-04-19T05:59:41;21.70;54.30
15609;DHT22;64278;45.642;13.756;2023-04-19T06:02:07;21.60;54.30
15609;DHT22;64278;45.642;13.756;2023-04-19T06:04:32;21.70;54.30
15609;DHT22;64278;45.642;13.756;2023-04-19T06:06:58;21.60;54.30
15609;DHT22;64278;45.642;13.756;2023-04-19T06:09:24;21.60;54.30
15609;DHT22;64278;45.642;13.756;2023-04-19T06:11:50;21.70;54.30
15609;DHT22;64278;45.642;13.756;2023-04-19T06:14:15;21.60;54.30
15609;DHT22;64278;45.642;13.756;2023-04-19T06:16:41;21.70;54.30
15609;DHT22;64278;45.642;13.756;2023-04-19T06:19:10;21.60;54.30
15609;DHT22;64278;45.642;13.756;2023-04-19T06:21:35;21.70;54.30
15609;DHT22;64278;45.642;13.756;2023-04-19T06:24:01;21.60;54.20
15609;DHT22;64278;45.642;13.756;2023-04-19T06:26:27;21.70;54.30
15609;DHT22;64278;45.642;13.756;2023-04-19T06:28:53;21.70;54.30
15609;DHT22;64278;45.642;13.756;2023-04-19T06:31:18;21.60;54.20
15609;DHT22;64278;45.642;13.756;2023-04-19T06:33:44;21.60;54.20
15609;DHT22;64278;45.642;13.756;2023-04-19T06:36:10;21.70;54.20
15609;DHT22;64278;45.642;13.756;2023-04-19T06:38:36;21.60;54.20
15609;DHT22;64278;45.642;13.756;2023-04-19T06:41:06;21.70;54.30
15609;DHT22;64278;45.642;13.756;2023-04-19T06:43:31;21.60;54.20
15609;DHT22;64278;45.642;13.756;2023-04-19T06:45:58;21.60;54.20
15609;DHT22;64278;45.642;13.756;2023-04-19T06:48:24;21.70;54.20
15609;DHT22;64278;45.642;13.756;2023-04-19T06:50:50;21.60;54.20
15609;DHT22;64278;45.642;13.756;2023-04-19T06:53:16;21.60;54.20
15609;DHT22;64278;45.642;13.756;2023-04-19T06:55:41;21.60;54.20
15609;DHT22;64278;45.642;13.756;2023-04-19T06:58:07;21.60;54.20
15609;DHT22;64278;45.642;13.756;2023-04-19T07:00:35;21.60;54.20
15609;DHT22;64278;45.642;13.756;2023-04-19T07:03:01;21.60;54.20
15609;DHT22;64278;45.642;13.756;2023-04-19T07:05:28;21.60;54.20
15609;DHT22;64278;45.642;13.756;2023-04-19T07:07:54;21.70;54.20
15609;DHT22;64278;45.642;13.756;2023-04-19T07:10:19;21.60;54.20
15609;DHT22;64278;45.642;13.756;2023-04-19T07:12:45;21.60;54.20
15609;DHT22;64278;45.642;13.756;2023-04-19T07:15:11;21.60;54.20
15609;DHT22;64278;45.642;13.756;2023-04-19T07:17:36;21.60;54.20
15609;DHT22;64278;45.642;13.756;2023-04-19T07:20:03;21.60;54.20
15609;DHT22;64278;45.642;13.756;2023-04-19T07:22:31;21.60;54.20
15609;DHT22;64278;45.642;13.756;2023-04-19T07:24:56;21.60;54.20
15609;DHT22;64278;45.642;13.756;2023-04-19T07:27:23;21.60;54.20
15609;DHT22;64278;45.642;13.756;2023-04-19T07:29:48;21.60;54.20
15609;DHT22;64278;45.642;13.756;2023-04-19T07:32:14;21.60;54.20
15609;DHT22;64278;45.642;13.756;2023-04-19T07:34:40;21.60;54.20
15609;DHT22;64278;45.642;13.756;2023-04-19T07:37:07;21.60;53.90
15609;DHT22;64278;45.642;13.756;2023-04-19T07:39:33;21.40;47.50
15609;DHT22;64278;45.642;13.756;2023-04-19T07:41:58;21.10;47.00
15609;DHT22;64278;45.642;13.756;2023-04-19T07:44:25;20.80;46.80
15609;DHT22;64278;45.642;13.756;2023-04-19T07:46:51;20.70;48.10
15609;DHT22;64278;45.642;13.756;2023-04-19T07:49:17;20.70;48.70
15609;DHT22;64278;45.642;13.756;2023-04-19T07:51:42;20.70;48.70
15609;DHT22;64278;45.642;13.756;2023-04-19T07:54:08;20.70;48.40
15609;DHT22;64278;45.642;13.756;2023-04-19T07:56:34;20.80;48.40
15609;DHT22;64278;45.642;13.756;2023-04-19T07:59:00;20.80;48.70
15609;DHT22;64278;45.642;13.756;2023-04-19T08:01:26;20.80;48.60
15609;DHT22;64278;45.642;13.756;2023-04-19T08:03:51;20.80;48.10
15609;DHT22;64278;45.642;13.756;2023-04-19T08:06:17;20.90;49.50
15609;DHT22;64278;45.642;13.756;2023-04-19T08:08:43;20.90;50.10
15609;DHT22;64278;45.642;13.756;2023-04-19T08:11:08;21.00;49.10
15609;DHT22;64278;45.642;13.756;2023-04-19T08:13:34;20.90;48.30
15609;DHT22;64278;45.642;13.756;2023-04-19T08:16:00;21.00;49.10
15609;DHT22;64278;45.642;13.756;2023-04-19T08:18:26;21.00;49.90
15609;DHT22;64278;45.642;13.756;2023-04-19T08:20:51;21.10;50.40
15609;DHT22;64278;45.642;13.756;2023-04-19T08:23:18;21.10;50.70
15609;DHT22;64278;45.642;13.756;2023-04-19T08:25:44;21.20;50.80
15609;DHT22;64278;45.642;13.756;2023-04-19T08:28:10;21.20;50.90
15609;DHT22;64278;45.642;13.756;2023-04-19T08:30:36;21.20;51.00
15609;DHT22;64278;45.642;13.756;2023-04-19T08:33:02;21.30;51.10
15609;DHT22;64278;45.642;13.756;2023-04-19T08:35:28;21.30;51.10
15609;DHT22;64278;45.642;13.756;2023-04-19T08:37:54;21.40;51.20
15609;DHT22;64278;45.642;13.756;2023-04-19T08:40:19;21.40;51.20
15609;DHT22;64278;45.642;13.756;2023-04-19T08:42:45;21.40;51.20
15609;DHT22;64278;45.642;13.756;2023-04-19T08:45:11;21.40;51.30
15609;DHT22;64278;45.642;13.756;2023-04-19T08:47:39;21.40;51.20
15609;DHT22;64278;45.642;13.756;2023-04-19T08:50:06;21.40;51.20
15609;DHT22;64278;45.642;13.756;2023-04-19T08:52:36;21.40;51.20
15609;DHT22;64278;45.642;13.756;2023-04-19T08:55:06;21.40;51.20
15609;DHT22;64278;45.642;13.756;2023-04-19T08:57:33;21.40;51.20
15609;DHT22;64278;45.642;13.756;2023-04-19T09:00:00;21.40;51.20
15609;DHT22;64278;45.642;13.756;2023-04-19T09:02:26;21.40;51.20
15609;DHT22;64278;45.642;13.756;2023-04-19T09:04:52;21.40;51.00
15609;DHT22;64278;45.642;13.756;2023-04-19T09:07:25;21.40;51.00
15609;DHT22;64278;45.642;13.756;2023-04-19T09:10:07;21.40;51.10
15609;DHT22;64278;45.642;13.756;2023-04-19T09:12:34;21.40;51.10
15609;DHT22;64278;45.642;13.756;2023-04-19T09:15:02;21.40;51.10
15609;DHT22;64278;45.642;13.756;2023-04-19T09:17:33;21.40;51.10
15609;DHT22;64278;45.642;13.756;2023-04-19T09:19:59;21.50;51.00
15609;DHT22;64278;45.642;13.756;2023-04-19T09:22:25;21.50;50.90
15609;DHT22;64278;45.642;13.756;2023-04-19T09:24:51;21.40;50.70
15609;DHT22;64278;45.642;13.756;2023-04-19T09:27:31;21.40;50.70
15609;DHT22;64278;45.642;13.756;2023-04-19T09:29:59;21.40;50.60
15609;DHT22;64278;45.642;13.756;2023-04-19T09:32:25;21.40;50.60
15609;DHT22;64278;45.642;13.756;2023-04-19T09:34:52;21.40;50.50
15609;DHT22;64278;45.642;13.756;2023-04-19T09:37:18;21.40;49.70
15609;DHT22;64278;45.642;13.756;2023-04-19T09:39:44;21.30;48.80
15609;DHT22;64278;45.642;13.756;2023-04-19T09:42:09;21.30;48.60
15609;DHT22;64278;45.642;13.756;2023-04-19T09:44:35;21.20;48.60
15609;DHT22;64278;45.642;13.756;2023-04-19T09:47:01;21.20;48.70
15609;DHT22;64278;45.642;13.756;2023-04-19T09:49:27;21.20;48.90
15609;DHT22;64278;45.642;13.756;2023-04-19T09:51:54;21.20;49.00
15609;DHT22;64278;45.642;13.756;2023-04-19T09:54:24;21.20;49.10
15609;DHT22;64278;45.642;13.756;2023-04-19T09:56:54;21.20;49.30
15609;DHT22;64278;45.642;13.756;2023-04-19T09:59:20;21.20;49.60
15609;DHT22;64278;45.642;13.756;2023-04-19T10:01:53;21.20;49.80
15609;DHT22;64278;45.642;13.756;2023-04-19T10:04:20;21.20;49.80
15609;DHT22;64278;45.642;13.756;2023-04-19T10:06:51;21.20;49.80
15609;DHT22;64278;45.642;13.756;2023-04-19T10:09:18;21.20;49.90
15609;DHT22;64278;45.642;13.756;2023-04-19T10:11:49;21.20;49.80
15609;DHT22;64278;45.642;13.756;2023-04-19T10:14:25;21.20;49.70
15609;DHT22;64278;45.642;13.756;2023-04-19T10:16:55;21.20;49.60
15609;DHT22;64278;45.642;13.756;2023-04-19T10:19:21;21.20;50.00
15609;DHT22;64278;45.642;13.756;2023-04-19T10:21:48;21.20;50.30
15609;DHT22;64278;45.642;13.756;2023-04-19T10:24:15;21.30;50.70
15609;DHT22;64278;45.642;13.756;2023-04-19T10:27:11;21.30;51.10
15609;DHT22;64278;45.642;13.756;2023-04-19T10:29:56;21.30;51.50
15609;DHT22;64278;45.642;13.756;2023-04-19T10:32:25;21.30;51.80
15609;DHT22;64278;45.642;13.756;2023-04-19T10:34:52;21.30;52.20
15609;DHT22;64278;45.642;13.756;2023-04-19T10:37:24;21.30;53.20
15609;DHT22;64278;45.642;13.756;2023-04-19T10:39:51;21.30;53.70
15609;DHT22;64278;45.642;13.756;2023-04-19T10:42:17;21.40;54.00
15609;DHT22;64278;45.642;13.756;2023-04-19T10:47:46;21.40;54.40
15609;DHT22;64278;45.642;13.756;2023-04-19T10:50:16;21.40;54.30
15609;DHT22;64278;45.642;13.756;2023-04-19T10:52:41;21.40;54.40
15609;DHT22;64278;45.642;13.756;2023-04-19T10:55:07;21.40;54.40
15609;DHT22;64278;45.642;13.756;2023-04-19T10:58:05;21.40;55.20
15609;DHT22;64278;45.642;13.756;2023-04-19T11:00:31;21.40;54.80
15609;DHT22;64278;45.642;13.756;2023-04-19T11:06:21;21.40;54.90
15609;DHT22;64278;45.642;13.756;2023-04-19T11:08:52;21.40;55.30
15609;DHT22;64278;45.642;13.756;2023-04-19T11:11:18;21.40;55.30
15609;DHT22;64278;45.642;13.756;2023-04-19T11:13:46;21.40;55.70
15609;DHT22;64278;45.642;13.756;2023-04-19T11:16:12;21.40;56.00
15609;DHT22;64278;45.642;13.756;2023-04-19T11:18:38;21.50;56.30
15609;DHT22;64278;45.642;13.756;2023-04-19T11:21:04;21.40;56.60
15609;DHT22;64278;45.642;13.756;2023-04-19T11:23:30;21.50;56.60
15609;DHT22;64278;45.642;13.756;2023-04-19T11:25:55;21.50;56.80
15609;DHT22;64278;45.642;13.756;2023-04-19T11:28:21;21.50;57.20
15609;DHT22;64278;45.642;13.756;2023-04-19T11:30:47;21.50;57.50
15609;DHT22;64278;45.642;13.756;2023-04-19T11:33:13;21.50;57.70
15609;DHT22;64278;45.642;13.756;2023-04-19T11:35:39;21.50;57.90
15609;DHT22;64278;45.642;13.756;2023-04-19T11:38:06;21.50;58.20
15609;DHT22;64278;45.642;13.756;2023-04-19T11:40:32;21.50;58.60
15609;DHT22;64278;45.642;13.756;2023-04-19T11:42:59;21.50;58.70
15609;DHT22;64278;45.642;13.756;2023-04-19T11:45:28;21.50;59.00
15609;DHT22;64278;45.642;13.756;2023-04-19T11:47:55;21.50;59.50
15609;DHT22;64278;45.642;13.756;2023-04-19T11:50:34;21.50;60.50
15609;DHT22;64278;45.642;13.756;2023-04-19T11:53:24;21.50;61.00
15609;DHT22;64278;45.642;13.756;2023-04-19T11:56:04;21.50;61.70
15609;DHT22;64278;45.642;13.756;2023-04-19T12:01:08;21.60;62.90
15609;DHT22;64278;45.642;13.756;2023-04-19T12:03:39;21.60;63.30
15609;DHT22;64278;45.642;13.756;2023-04-19T12:06:10;21.50;63.20
15609;DHT22;64278;45.642;13.756;2023-04-19T12:08:47;21.50;64.00
15609;DHT22;64278;45.642;13.756;2023-04-19T12:11:13;21.50;64.10
15609;DHT22;64278;45.642;13.756;2023-04-19T12:13:40;21.50;64.00
15609;DHT22;64278;45.642;13.756;2023-04-19T12:16:06;21.50;64.00
15609;DHT22;64278;45.642;13.756;2023-04-19T12:18:49;21.60;64.00
15609;DHT22;64278;45.642;13.756;2023-04-19T12:21:29;21.50;63.60
15609;DHT22;64278;45.642;13.756;2023-04-19T12:23:56;21.50;63.30
15609;DHT22;64278;45.642;13.756;2023-04-19T12:26:23;21.50;63.70
15609;DHT22;64278;45.642;13.756;2023-04-19T12:28:50;21.50;62.40
15609;DHT22;64278;45.642;13.756;2023-04-19T12:31:15;21.60;62.30
15609;DHT22;64278;45.642;13.756;2023-04-19T12:33:41;21.60;61.90
15609;DHT22;64278;45.642;13.756;2023-04-19T12:36:07;21.50;61.60
15609;DHT22;64278;45.642;13.756;2023-04-19T12:38:32;21.50;61.10
15609;DHT22;64278;45.642;13.756;2023-04-19T12:40:58;21.60;61.10
15609;DHT22;64278;45.642;13.756;2023-04-19T12:43:24;21.60;60.80
15609;DHT22;64278;45.642;13.756;2023-04-19T12:45:49;21.60;60.60
15609;DHT22;64278;45.642;13.756;2023-04-19T12:48:15;21.60;60.40
15609;DHT22;64278;45.642;13.756;2023-04-19T12:50:40;21.60;60.10
15609;DHT22;64278;45.642;13.756;2023-04-19T12:53:06;21.60;59.90
15609;DHT22;64278;45.642;13.756;2023-04-19T12:55:33;21.60;59.60
15609;DHT22;64278;45.642;13.756;2023-04-19T12:57:59;21.70;59.40
15609;DHT22;64278;45.642;13.756;2023-04-19T13:00:25;21.70;59.30
15609;DHT22;64278;45.642;13.756;2023-04-19T13:02:51;21.60;59.00
15609;DHT22;64278;45.642;13.756;2023-04-19T13:05:16;21.70;58.90
15609;DHT22;64278;45.642;13.756;2023-04-19T13:07:42;21.70;58.80
15609;DHT22;64278;45.642;13.756;2023-04-19T13:10:08;21.60;58.60
15609;DHT22;64278;45.642;13.756;2023-04-19T13:12:35;21.60;58.60
15609;DHT22;64278;45.642;13.756;2023-04-19T13:15:01;21.60;58.60
15609;DHT22;64278;45.642;13.756;2023-04-19T13:17:27;21.60;58.60
15609;DHT22;64278;45.642;13.756;2023-04-19T13:19:52;21.60;58.70
15609;DHT22;64278;45.642;13.756;2023-04-19T13:22:18;21.60;58.50
15609;DHT22;64278;45.642;13.756;2023-04-19T13:24:44;21.60;58.40
15609;DHT22;64278;45.642;13.756;2023-04-19T13:27:09;21.70;58.30
15609;DHT22;64278;45.642;13.756;2023-04-19T13:29:35;21.70;58.20
15609;DHT22;64278;45.642;13.756;2023-04-19T13:32:02;21.60;58.00
15609;DHT22;64278;45.642;13.756;2023-04-19T13:34:28;21.60;58.10
15609;DHT22;64278;45.642;13.756;2023-04-19T13:36:54;21.60;58.30
15609;DHT22;64278;45.642;13.756;2023-04-19T13:39:19;21.60;58.50
15609;DHT22;64278;45.642;13.756;2023-04-19T13:41:46;21.70;58.60
15609;DHT22;64278;45.642;13.756;2023-04-19T13:44:11;21.60;58.70
15609;DHT22;64278;45.642;13.756;2023-04-19T13:46:37;21.70;58.80
15609;DHT22;64278;45.642;13.756;2023-04-19T13:49:02;21.70;59.00
15609;DHT22;64278;45.642;13.756;2023-04-19T13:51:28;21.60;59.10
15609;DHT22;64278;45.642;13.756;2023-04-19T13:53:54;21.70;59.20
15609;DHT22;64278;45.642;13.756;2023-04-19T13:56:19;21.60;59.30
15609;DHT22;64278;45.642;13.756;2023-04-19T13:58:45;21.60;59.30
15609;DHT22;64278;45.642;13.756;2023-04-19T14:01:11;21.60;59.40
15609;DHT22;64278;45.642;13.756;2023-04-19T14:03:37;21.70;59.50
15609;DHT22;64278;45.642;13.756;2023-04-19T14:06:02;21.70;59.70
15609;DHT22;64278;45.642;13.756;2023-04-19T14:08:28;21.70;59.80
15609;DHT22;64278;45.642;13.756;2023-04-19T14:10:54;21.70;60.00
15609;DHT22;64278;45.642;13.756;2023-04-19T14:13:20;21.60;60.40
15609;DHT22;64278;45.642;13.756;2023-04-19T14:15:45;21.70;60.80
15609;DHT22;64278;45.642;13.756;2023-04-19T14:18:11;21.70;61.00
15609;DHT22;64278;45.642;13.756;2023-04-19T14:20:37;21.70;61.00
15609;DHT22;64278;45.642;13.756;2023-04-19T14:23:02;21.60;61.10
15609;DHT22;64278;45.642;13.756;2023-04-19T14:25:28;21.70;61.20
15609;DHT22;64278;45.642;13.756;2023-04-19T14:27:54;21.60;61.10
15609;DHT22;64278;45.642;13.756;2023-04-19T14:30:19;21.70;60.90
15609;DHT22;64278;45.642;13.756;2023-04-19T14:32:45;21.70;60.90
15609;DHT22;64278;45.642;13.756;2023-04-19T14:35:11;21.70;60.80
15609;DHT22;64278;45.642;13.756;2023-04-19T14:37:37;21.70;60.60
15609;DHT22;64278;45.642;13.756;2023-04-19T14:40:03;21.70;60.60
15609;DHT22;64278;45.642;13.756;2023-04-19T14:42:29;21.60;60.40
15609;DHT22;64278;45.642;13.756;2023-04-19T14:44:56;21.70;60.50
15609;DHT22;64278;45.642;13.756;2023-04-19T14:47:22;21.70;60.30
15609;DHT22;64278;45.642;13.756;2023-04-19T14:49:48;21.70;60.10
15609;DHT22;64278;45.642;13.756;2023-04-19T14:52:14;21.70;60.30
15609;DHT22;64278;45.642;13.756;2023-04-19T14:54:40;21.70;59.90
15609;DHT22;64278;45.642;13.756;2023-04-19T14:57:06;21.70;59.80
15609;DHT22;64278;45.642;13.756;2023-04-19T14:59:32;21.60;59.70
15609;DHT22;64278;45.642;13.756;2023-04-19T15:01:58;21.70;59.60
15609;DHT22;64278;45.642;13.756;2023-04-19T15:04:23;21.70;59.60
15609;DHT22;64278;45.642;13.756;2023-04-19T15:06:49;21.60;59.40
15609;DHT22;64278;45.642;13.756;2023-04-19T15:09:15;21.70;59.40
15609;DHT22;64278;45.642;13.756;2023-04-19T15:11:40;21.70;59.30
15609;DHT22;64278;45.642;13.756;2023-04-19T15:14:06;21.70;59.30
15609;DHT22;64278;45.642;13.756;2023-04-19T15:16:32;21.60;59.20
15609;DHT22;64278;45.642;13.756;2023-04-19T15:18:57;21.70;59.20
15609;DHT22;64278;45.642;13.756;2023-04-19T15:21:23;21.60;59.10